METAR Data
IDs: Format: Raw Decoded Include TAF

Data at: 2032 UTC 17 Nov 2019

PTPN 171952Z 16003KT 15SM SCT018TCU BKN130 OVC300 26/25 A2982 RMK TCU N-E